createdAt,value
2017-09-24T00:00:34.838Z,0
2017-09-24T00:01:34.738Z,0
2017-09-24T00:02:35.037Z,0
2017-09-24T00:03:34.514Z,0
2017-09-24T00:04:34.722Z,0
2017-09-24T00:05:34.867Z,0
2017-09-24T00:06:35.265Z,0
2017-09-24T00:07:35.016Z,0
2017-09-24T00:08:34.844Z,0
2017-09-24T00:09:34.998Z,0
2017-09-24T00:10:35.509Z,0
2017-09-24T00:11:34.683Z,0
2017-09-24T00:12:34.675Z,0
2017-09-24T00:13:34.772Z,0
2017-09-24T00:14:34.978Z,0
2017-09-24T00:15:35.427Z,0
2017-09-24T00:16:34.344Z,0
2017-09-24T00:17:34.343Z,0
2017-09-24T00:18:34.335Z,0
2017-09-24T00:19:34.635Z,0
2017-09-24T00:20:34.634Z,0
2017-09-24T00:21:35.251Z,0
2017-09-24T00:22:34.627Z,0
2017-09-24T00:23:35.032Z,0
2017-09-24T00:24:35.171Z,0
2017-09-24T00:25:34.709Z,0
2017-09-24T00:26:34.393Z,0
2017-09-24T00:27:34.611Z,0
2017-09-24T00:28:34.905Z,0
2017-09-24T00:29:34.896Z,0
2017-09-24T00:30:34.998Z,0
2017-09-24T00:31:34.367Z,0
2017-09-24T00:32:34.722Z,0
2017-09-24T00:33:34.254Z,0
2017-09-24T00:34:34.561Z,0
2017-09-24T00:35:34.243Z,0
2017-09-24T00:36:34.701Z,0
2017-09-24T00:37:35.266Z,0
2017-09-24T00:38:34.541Z,0
2017-09-24T00:39:34.840Z,0
2017-09-24T00:40:34.941Z,0
2017-09-24T00:41:34.835Z,0
2017-09-24T00:42:34.826Z,0
2017-09-24T00:43:34.921Z,0
2017-09-24T00:44:34.507Z,0
2017-09-24T00:45:34.604Z,0
2017-09-24T00:46:35.118Z,0
2017-09-24T00:47:35.264Z,0
2017-09-24T00:48:34.798Z,0
2017-09-24T00:49:34.585Z,0
2017-09-24T00:50:34.787Z,0
2017-09-24T00:51:34.783Z,0
2017-09-24T00:52:34.156Z,0
2017-09-24T00:53:34.493Z,0
2017-09-24T00:54:34.452Z,0
2017-09-24T00:55:35.070Z,0
2017-09-24T00:56:34.857Z,0
2017-09-24T00:57:35.105Z,0
2017-09-24T00:58:34.734Z,0
2017-09-24T00:59:34.839Z,0
2017-09-24T01:00:34.421Z,0
2017-09-24T01:01:34.520Z,0
2017-09-24T01:02:34.822Z,0
2017-09-24T01:03:34.819Z,0
2017-09-24T01:04:34.814Z,0
2017-09-24T01:05:34.504Z,0
2017-09-24T01:06:34.389Z,0
2017-09-24T01:07:34.490Z,0
2017-09-24T01:08:34.689Z,0
2017-09-24T01:09:34.372Z,0
2017-09-24T01:10:34.370Z,0
2017-09-24T01:11:34.367Z,0
2017-09-24T01:12:34.773Z,0
2017-09-24T01:13:34.457Z,0
2017-09-24T01:14:34.657Z,0
2017-09-24T01:15:34.135Z,0
2017-09-24T01:16:34.962Z,0
2017-09-24T01:17:34.024Z,0
2017-09-24T01:18:34.743Z,0
2017-09-24T01:19:34.472Z,0
2017-09-24T01:20:34.633Z,0
2017-09-24T01:21:34.727Z,0
2017-09-24T01:22:34.306Z,0
2017-09-24T01:23:34.749Z,0
2017-09-24T01:24:34.498Z,0
2017-09-24T01:25:34.288Z,0
2017-09-24T01:26:34.284Z,0
2017-09-24T01:27:34.788Z,0
2017-09-24T01:28:34.585Z,0
2017-09-24T01:29:34.519Z,0
2017-09-24T01:30:34.884Z,0
2017-09-24T01:31:34.569Z,0
2017-09-24T01:32:34.404Z,0
2017-09-24T01:33:34.038Z,0
2017-09-24T01:34:34.350Z,0
2017-09-24T01:35:34.340Z,0
2017-09-24T01:36:33.923Z,0
2017-09-24T01:37:34.019Z,0
2017-09-24T01:38:34.319Z,0
2017-09-24T01:39:34.529Z,0
2017-09-24T01:40:34.318Z,0
2017-09-24T01:41:34.517Z,0
2017-09-24T01:42:34.608Z,0
2017-09-24T01:43:33.884Z,0
2017-09-24T01:44:34.504Z,0
2017-09-24T01:45:34.594Z,0
2017-09-24T01:46:34.486Z,0
2017-09-24T01:47:34.746Z,0
2017-09-24T01:48:34.783Z,0
2017-09-24T01:49:34.479Z,0
2017-09-24T01:50:34.467Z,0
2017-09-24T01:51:34.465Z,0
2017-09-24T01:52:33.933Z,0
2017-09-24T01:53:34.914Z,0
2017-09-24T01:54:34.753Z,0
2017-09-24T01:55:34.128Z,0
2017-09-24T01:56:34.945Z,0
2017-09-24T01:57:34.541Z,0
2017-09-24T01:58:34.736Z,0
2017-09-24T01:59:34.422Z,0
2017-09-24T02:00:34.726Z,0
2017-09-24T02:01:34.099Z,0
2017-09-24T02:02:34.407Z,0
2017-09-24T02:03:34.395Z,0
2017-09-24T02:04:34.387Z,0
2017-09-24T02:05:34.080Z,0
2017-09-24T02:06:34.792Z,0
2017-09-24T02:07:34.478Z,0
2017-09-24T02:08:33.751Z,0
2017-09-24T02:09:34.055Z,0
2017-09-24T02:10:34.516Z,0
2017-09-24T02:11:34.044Z,0
2017-09-24T02:12:34.498Z,0
2017-09-24T02:13:34.805Z,0
2017-09-24T02:14:34.339Z,0
2017-09-24T02:15:34.023Z,0
2017-09-24T02:16:34.325Z,0
2017-09-24T02:17:34.733Z,0
2017-09-24T02:18:33.696Z,0
2017-09-24T02:19:34.001Z,0
2017-09-24T02:20:34.437Z,0
2017-09-24T02:21:34.142Z,0
2017-09-24T02:22:33.980Z,0
2017-09-24T02:23:33.670Z,0
2017-09-24T02:24:34.595Z,0
2017-09-24T02:25:34.282Z,0
2017-09-24T02:26:34.001Z,0
2017-09-24T02:27:34.371Z,0
2017-09-24T02:28:33.954Z,0
2017-09-24T02:29:34.255Z,0
2017-09-24T02:30:34.263Z,0
2017-09-24T02:31:33.936Z,0
2017-09-24T02:32:34.029Z,0
2017-09-24T02:33:34.026Z,0
2017-09-24T02:34:34.024Z,0
2017-09-24T02:35:33.914Z,0
2017-09-24T02:36:33.914Z,0
2017-09-24T02:37:34.052Z,0
2017-09-24T02:38:34.049Z,0
2017-09-24T02:39:34.520Z,0
2017-09-24T02:40:34.619Z,0
2017-09-24T02:41:34.603Z,0
2017-09-24T02:42:34.189Z,0
2017-09-24T02:43:33.564Z,0
2017-09-24T02:44:34.494Z,0
2017-09-24T02:45:34.584Z,0
2017-09-24T02:46:34.477Z,0
2017-09-24T02:47:33.640Z,0
2017-09-24T02:48:33.846Z,0
2017-09-24T02:49:33.868Z,0
2017-09-24T02:50:34.346Z,0
2017-09-24T02:51:34.143Z,0
2017-09-24T02:52:33.824Z,0
2017-09-24T02:53:33.918Z,0
2017-09-24T02:54:34.435Z,0
2017-09-24T02:55:34.527Z,0
2017-09-24T02:56:34.111Z,0
2017-09-24T02:57:33.488Z,0
2017-09-24T02:58:33.892Z,0
2017-09-24T02:59:34.100Z,0
2017-09-24T03:00:33.884Z,0
2017-09-24T03:01:34.084Z,0
2017-09-24T03:02:34.489Z,0
2017-09-24T03:03:33.760Z,0
2017-09-24T03:04:33.756Z,0
2017-09-24T03:05:33.750Z,0
2017-09-24T03:06:33.433Z,0
2017-09-24T03:07:33.742Z,0
2017-09-24T03:08:33.836Z,0
2017-09-24T03:09:34.075Z,0
2017-09-24T03:10:34.544Z,0
2017-09-24T03:11:33.512Z,0
2017-09-24T03:12:34.028Z,0
2017-09-24T03:13:33.502Z,0
2017-09-24T03:14:34.321Z,0
2017-09-24T03:15:33.896Z,0
2017-09-24T03:16:34.009Z,0
2017-09-24T03:17:34.003Z,0
2017-09-24T03:18:33.779Z,0
2017-09-24T03:19:33.514Z,0
2017-09-24T03:20:34.080Z,0
2017-09-24T03:21:33.664Z,0
2017-09-24T03:22:34.275Z,0
2017-09-24T03:23:33.653Z,0
2017-09-24T03:24:33.962Z,0
2017-09-24T03:25:33.956Z,0
2017-09-24T03:26:33.475Z,0
2017-09-24T03:27:34.255Z,0
2017-09-24T03:28:33.932Z,0
2017-09-24T03:29:33.407Z,0
2017-09-24T03:30:33.934Z,0
2017-09-24T03:31:34.379Z,0
2017-09-24T03:32:34.014Z,0
2017-09-24T03:33:33.924Z,0
2017-09-24T03:34:34.370Z,0
2017-09-24T03:35:33.376Z,0
2017-09-24T03:36:33.579Z,0
2017-09-24T03:37:33.897Z,0
2017-09-24T03:38:34.083Z,0
2017-09-24T03:39:33.970Z,0
2017-09-24T03:40:34.016Z,0
2017-09-24T03:41:33.555Z,0
2017-09-24T03:42:33.957Z,0
2017-09-24T03:43:33.856Z,0
2017-09-24T03:44:33.794Z,0
2017-09-24T03:45:33.532Z,0
2017-09-24T03:46:33.675Z,0
2017-09-24T03:47:33.519Z,0
2017-09-24T03:48:33.354Z,0
2017-09-24T03:49:33.920Z,0
2017-09-24T03:50:33.602Z,0
2017-09-24T03:51:33.808Z,0
2017-09-24T03:52:33.521Z,0
2017-09-24T03:53:33.900Z,0
2017-09-24T03:54:33.585Z,0
2017-09-24T03:55:33.474Z,0
2017-09-24T03:56:33.782Z,0
2017-09-24T03:57:33.467Z,0
2017-09-24T03:58:33.767Z,0
2017-09-24T03:59:33.556Z,0
2017-09-24T04:00:34.066Z,0
2017-09-24T04:01:33.758Z,0
2017-09-24T04:02:33.439Z,0
2017-09-24T04:03:33.323Z,0
2017-09-24T04:04:33.423Z,0
2017-09-24T04:05:34.141Z,0
2017-09-24T04:06:33.108Z,0
2017-09-24T04:07:33.720Z,0
2017-09-24T04:08:33.558Z,0
2017-09-24T04:09:33.186Z,0
2017-09-24T04:10:33.705Z,0
2017-09-24T04:11:33.695Z,0
2017-09-24T04:12:33.395Z,0
2017-09-24T04:13:33.375Z,0
2017-09-24T04:14:33.472Z,0
2017-09-24T04:15:33.472Z,0
2017-09-24T04:16:33.980Z,0
2017-09-24T04:17:33.457Z,0
2017-09-24T04:18:33.348Z,0
2017-09-24T04:19:33.753Z,0
2017-09-24T04:20:33.438Z,0
2017-09-24T04:21:33.436Z,0
2017-09-24T04:22:33.634Z,0
2017-09-24T04:23:33.631Z,0
2017-09-24T04:24:33.004Z,0
2017-09-24T04:25:33.719Z,0
2017-09-24T04:26:34.021Z,0
2017-09-24T04:27:33.615Z,0
2017-09-24T04:28:33.293Z,0
2017-09-24T04:29:32.972Z,0
2017-09-24T04:30:33.282Z,0
2017-09-24T04:31:33.526Z,0
2017-09-24T04:32:32.961Z,0
2017-09-24T04:33:33.577Z,0
2017-09-24T04:34:33.569Z,0
2017-09-24T04:35:33.254Z,0
2017-09-24T04:36:33.554Z,0
2017-09-24T04:37:33.655Z,0
2017-09-24T04:38:33.549Z,0
2017-09-24T04:39:33.852Z,0
2017-09-24T04:40:33.536Z,0
2017-09-24T04:41:33.321Z,0
2017-09-24T04:42:33.315Z,0
2017-09-24T04:43:33.459Z,0
2017-09-24T04:44:33.044Z,0
2017-09-24T04:45:33.530Z,0
2017-09-24T04:46:33.196Z,0
2017-09-24T04:47:33.599Z,0
2017-09-24T04:48:32.871Z,0
2017-09-24T04:49:33.651Z,0
2017-09-24T04:50:33.482Z,0
2017-09-24T04:51:33.475Z,0
2017-09-24T04:52:33.196Z,0
2017-09-24T04:53:33.463Z,0
2017-09-24T04:54:33.145Z,0
2017-09-24T04:55:33.295Z,0
2017-09-24T04:56:33.148Z,0
2017-09-24T04:57:32.920Z,0
2017-09-24T04:58:32.815Z,4
2017-09-24T04:59:33.219Z,4
2017-09-24T05:00:33.522Z,4
2017-09-24T05:01:33.576Z,0
2017-09-24T05:02:33.117Z,0
2017-09-24T05:03:33.512Z,4
2017-09-24T05:04:33.718Z,4
2017-09-24T05:05:33.087Z,4
2017-09-24T05:06:33.083Z,4
2017-09-24T05:07:33.706Z,4
2017-09-24T05:08:33.378Z,4
2017-09-24T05:09:33.067Z,8
2017-09-24T05:10:33.570Z,4
2017-09-24T05:11:32.739Z,8
2017-09-24T05:12:32.986Z,8
2017-09-24T05:13:32.829Z,12
2017-09-24T05:14:33.346Z,12
2017-09-24T05:15:33.026Z,16
2017-09-24T05:16:33.212Z,20
2017-09-24T05:17:32.809Z,20
2017-09-24T05:18:33.416Z,20
2017-09-24T05:19:32.695Z,20
2017-09-24T05:20:33.312Z,24
2017-09-24T05:21:32.994Z,28
2017-09-24T05:22:33.611Z,28
2017-09-24T05:23:33.601Z,32
2017-09-24T05:24:33.086Z,32
2017-09-24T05:25:33.589Z,32
2017-09-24T05:26:32.972Z,36
2017-09-24T05:27:32.650Z,36
2017-09-24T05:28:33.084Z,40
2017-09-24T05:29:33.259Z,40
2017-09-24T05:30:33.290Z,44
2017-09-24T05:31:33.037Z,44
2017-09-24T05:32:33.033Z,52
2017-09-24T05:33:33.554Z,52
2017-09-24T05:34:33.019Z,60
2017-09-24T05:35:32.918Z,64
2017-09-24T05:36:32.912Z,68
2017-09-24T05:37:32.908Z,72
2017-09-24T05:38:33.620Z,80
2017-09-24T05:39:32.581Z,84
2017-09-24T05:40:33.298Z,84
2017-09-24T05:41:33.193Z,92
2017-09-24T05:42:33.493Z,96
2017-09-24T05:43:33.277Z,100
2017-09-24T05:44:33.276Z,104
2017-09-24T05:45:33.273Z,108
2017-09-24T05:46:32.857Z,112
2017-09-24T05:47:32.851Z,112
2017-09-24T05:48:32.941Z,112
2017-09-24T05:49:32.836Z,116
2017-09-24T05:50:33.294Z,116
2017-09-24T05:51:32.828Z,116
2017-09-24T05:52:32.817Z,120
2017-09-24T05:53:33.127Z,120
2017-09-24T05:54:33.119Z,120
2017-09-24T05:55:32.903Z,116
2017-09-24T05:56:32.509Z,112
2017-09-24T05:57:32.682Z,104
2017-09-24T05:58:32.477Z,100
2017-09-24T05:59:33.546Z,92
2017-09-24T06:00:33.023Z,88
2017-09-24T06:01:33.377Z,88
2017-09-24T06:02:33.059Z,92
2017-09-24T06:03:32.536Z,92
2017-09-24T06:04:32.889Z,92
2017-09-24T06:05:33.047Z,96
2017-09-24T06:06:33.139Z,100
2017-09-24T06:07:32.732Z,108
2017-09-24T06:08:32.819Z,116
2017-09-24T06:09:33.022Z,128
2017-09-24T06:10:32.711Z,132
2017-09-24T06:11:32.852Z,136
2017-09-24T06:12:33.003Z,136
2017-09-24T06:13:33.151Z,132
2017-09-24T06:14:32.991Z,136
2017-09-24T06:15:32.675Z,140
2017-09-24T06:16:32.820Z,144
2017-09-24T06:17:32.981Z,148
2017-09-24T06:18:33.074Z,156
2017-09-24T06:19:32.967Z,156
2017-09-24T06:20:32.962Z,160
2017-09-24T06:21:33.264Z,172
2017-09-24T06:22:32.947Z,180
2017-09-24T06:23:32.635Z,180
2017-09-24T06:24:32.627Z,184
2017-09-24T06:25:33.034Z,192
2017-09-24T06:26:32.720Z,204
2017-09-24T06:27:32.613Z,216
2017-09-24T06:28:32.605Z,216
2017-09-24T06:29:32.599Z,212
2017-09-24T06:30:32.695Z,224
2017-09-24T06:31:32.378Z,236
2017-09-24T06:32:32.887Z,244
2017-09-24T06:33:32.884Z,248
2017-09-24T06:34:32.600Z,244
2017-09-24T06:35:32.597Z,240
2017-09-24T06:36:32.500Z,236
2017-09-24T06:37:32.865Z,232
2017-09-24T06:38:32.547Z,232
2017-09-24T06:39:32.851Z,232
2017-09-24T06:40:32.544Z,228
2017-09-24T06:41:32.995Z,232
2017-09-24T06:42:32.929Z,224
2017-09-24T06:43:32.359Z,228
2017-09-24T06:44:32.825Z,228
2017-09-24T06:45:32.512Z,224
2017-09-24T06:46:32.196Z,220
2017-09-24T06:47:33.102Z,220
2017-09-24T06:48:32.899Z,216
2017-09-24T06:49:32.486Z,212
2017-09-24T06:50:32.794Z,208
2017-09-24T06:51:33.100Z,212
2017-09-24T06:52:32.932Z,216
2017-09-24T06:53:32.466Z,216
2017-09-24T06:54:32.603Z,216
2017-09-24T06:55:33.075Z,216
2017-09-24T06:56:32.136Z,224
2017-09-24T06:57:32.640Z,240
2017-09-24T06:58:32.435Z,252
2017-09-24T06:59:32.432Z,260
2017-09-24T07:00:32.673Z,272
2017-09-24T07:01:32.726Z,288
2017-09-24T07:02:32.412Z,296
2017-09-24T07:03:32.746Z,304
2017-09-24T07:04:32.091Z,316
2017-09-24T07:05:32.083Z,316
2017-09-24T07:06:32.387Z,312
2017-09-24T07:07:32.684Z,312
2017-09-24T07:08:32.685Z,312
2017-09-24T07:09:32.682Z,312
2017-09-24T07:10:32.779Z,312
2017-09-24T07:11:32.053Z,308
2017-09-24T07:12:32.696Z,300
2017-09-24T07:13:32.658Z,296
2017-09-24T07:14:32.652Z,296
2017-09-24T07:15:32.343Z,304
2017-09-24T07:16:32.742Z,312
2017-09-24T07:17:32.326Z,320
2017-09-24T07:18:32.422Z,328
2017-09-24T07:19:32.261Z,344
2017-09-24T07:20:32.621Z,364
2017-09-24T07:21:32.611Z,380
2017-09-24T07:22:32.617Z,392
2017-09-24T07:23:32.294Z,404
2017-09-24T07:24:32.391Z,424
2017-09-24T07:25:32.286Z,440
2017-09-24T07:26:32.280Z,456
2017-09-24T07:27:31.962Z,472
2017-09-24T07:28:32.881Z,488
2017-09-24T07:29:31.954Z,508
2017-09-24T07:30:32.566Z,532
2017-09-24T07:31:32.563Z,556
2017-09-24T07:32:32.554Z,584
2017-09-24T07:33:32.387Z,616
2017-09-24T07:34:32.234Z,636
2017-09-24T07:35:32.870Z,616
2017-09-24T07:36:32.841Z,592
2017-09-24T07:37:32.214Z,572
2017-09-24T07:38:32.828Z,564
2017-09-24T07:39:32.935Z,564
2017-09-24T07:40:32.508Z,564
2017-09-24T07:41:32.915Z,568
2017-09-24T07:42:32.502Z,584
2017-09-24T07:43:32.494Z,600
2017-09-24T07:44:31.967Z,628
2017-09-24T07:45:32.175Z,668
2017-09-24T07:46:32.164Z,724
2017-09-24T07:47:32.570Z,776
2017-09-24T07:48:32.162Z,816
2017-09-24T07:49:32.609Z,832
2017-09-24T07:50:32.250Z,828
2017-09-24T07:51:32.245Z,804
2017-09-24T07:52:32.133Z,772
2017-09-24T07:53:32.228Z,736
2017-09-24T07:54:32.130Z,704
2017-09-24T07:55:32.267Z,696
2017-09-24T07:56:32.733Z,700
2017-09-24T07:57:31.896Z,716
2017-09-24T07:58:32.106Z,760
2017-09-24T07:59:32.505Z,788
2017-09-24T08:00:32.498Z,776
2017-09-24T08:01:32.397Z,724
2017-09-24T08:02:32.183Z,692
2017-09-24T08:03:32.079Z,676
2017-09-24T08:04:32.882Z,660
2017-09-24T08:05:32.706Z,644
2017-09-24T08:06:32.473Z,636
2017-09-24T08:07:32.046Z,648
2017-09-24T08:08:31.734Z,680
2017-09-24T08:09:32.140Z,712
2017-09-24T08:10:32.348Z,744
2017-09-24T08:11:32.178Z,744
2017-09-24T08:12:32.648Z,712
2017-09-24T08:13:32.738Z,664
2017-09-24T08:14:32.164Z,624
2017-09-24T08:15:32.005Z,600
2017-09-24T08:16:32.316Z,596
2017-09-24T08:17:32.408Z,600
2017-09-24T08:18:32.302Z,612
2017-09-24T08:19:32.394Z,636
2017-09-24T08:20:32.289Z,668
2017-09-24T08:21:32.593Z,696
2017-09-24T08:22:31.658Z,732
2017-09-24T08:23:32.586Z,768
2017-09-24T08:24:31.898Z,780
2017-09-24T08:25:31.954Z,764
2017-09-24T08:26:32.358Z,728
2017-09-24T08:27:31.964Z,704
2017-09-24T08:28:32.244Z,684
2017-09-24T08:29:31.618Z,680
2017-09-24T08:30:32.076Z,676
2017-09-24T08:31:32.329Z,676
2017-09-24T08:32:32.017Z,676
2017-09-24T08:33:31.910Z,680
2017-09-24T08:34:32.000Z,680
2017-09-24T08:35:32.351Z,684
2017-09-24T08:36:31.889Z,684
2017-09-24T08:37:32.189Z,680
2017-09-24T08:38:31.572Z,680
2017-09-24T08:39:31.872Z,672
2017-09-24T08:40:32.329Z,664
2017-09-24T08:41:31.865Z,664
2017-09-24T08:42:31.858Z,684
2017-09-24T08:43:32.296Z,700
2017-09-24T08:44:32.570Z,720
2017-09-24T08:45:32.457Z,748
2017-09-24T08:46:32.142Z,780
2017-09-24T08:47:31.833Z,832
2017-09-24T08:48:31.618Z,896
2017-09-24T08:49:31.819Z,892
2017-09-24T08:50:31.812Z,880
2017-09-24T08:51:31.503Z,872
2017-09-24T08:52:32.116Z,864
2017-09-24T08:53:31.795Z,856
2017-09-24T08:54:32.102Z,876
2017-09-24T08:55:32.101Z,844
2017-09-24T08:56:31.785Z,844
2017-09-24T08:57:31.785Z,848
2017-09-24T08:58:31.772Z,864
2017-09-24T08:59:31.870Z,896
2017-09-24T09:00:31.764Z,924
2017-09-24T09:01:31.856Z,948
2017-09-24T09:02:31.753Z,976
2017-09-24T09:03:32.052Z,996
2017-09-24T09:04:32.359Z,1016
2017-09-24T09:05:31.735Z,1032
2017-09-24T09:06:31.726Z,1036
2017-09-24T09:07:31.722Z,1044
2017-09-24T09:08:32.131Z,1052
2017-09-24T09:09:32.434Z,1076
2017-09-24T09:10:32.113Z,1100
2017-09-24T09:11:32.015Z,1112
2017-09-24T09:12:32.004Z,1092
2017-09-24T09:13:31.690Z,1084
2017-09-24T09:14:32.094Z,1072
2017-09-24T09:15:31.683Z,1076
2017-09-24T09:16:31.367Z,1084
2017-09-24T09:17:31.770Z,1084
2017-09-24T09:18:32.123Z,1072
2017-09-24T09:19:32.073Z,1056
2017-09-24T09:20:31.758Z,1044
2017-09-24T09:21:31.340Z,1024
2017-09-24T09:22:31.336Z,972
2017-09-24T09:23:31.657Z,920
2017-09-24T09:24:31.633Z,876
2017-09-24T09:25:32.399Z,832
2017-09-24T09:26:31.937Z,824
2017-09-24T09:27:31.930Z,828
2017-09-24T09:28:31.926Z,820
2017-09-24T09:29:31.614Z,816
2017-09-24T09:30:31.390Z,812
2017-09-24T09:31:31.694Z,804
2017-09-24T09:32:32.209Z,776
2017-09-24T09:33:32.048Z,800
2017-09-24T09:34:31.890Z,732
2017-09-24T09:35:31.578Z,760
2017-09-24T09:36:32.185Z,740
2017-09-24T09:37:32.329Z,816
2017-09-24T09:38:31.970Z,916
2017-09-24T09:39:31.555Z,1020
2017-09-24T09:40:31.549Z,1084
2017-09-24T09:41:31.541Z,1100
2017-09-24T09:42:31.539Z,1120
2017-09-24T09:43:31.541Z,1076
2017-09-24T09:44:31.530Z,1032
2017-09-24T09:45:32.149Z,1052
2017-09-24T09:46:31.827Z,1124
2017-09-24T09:47:31.818Z,1160
2017-09-24T09:48:31.515Z,1180
2017-09-24T09:49:31.190Z,1212
2017-09-24T09:50:31.495Z,1216
2017-09-24T09:51:31.595Z,1224
2017-09-24T09:52:31.785Z,1248
2017-09-24T09:53:32.102Z,1204
2017-09-24T09:54:31.479Z,1256
2017-09-24T09:55:31.471Z,1284
2017-09-24T09:56:31.468Z,1276
2017-09-24T09:57:31.759Z,1360
2017-09-24T09:58:31.452Z,1424
2017-09-24T09:59:31.759Z,1456
2017-09-24T10:00:31.449Z,1436
2017-09-24T10:01:31.743Z,1460
2017-09-24T10:02:31.747Z,1500
2017-09-24T10:03:31.121Z,1524
2017-09-24T10:04:32.048Z,1548
2017-09-24T10:05:31.418Z,1520
2017-09-24T10:06:31.103Z,1400
2017-09-24T10:07:31.100Z,1268
2017-09-24T10:08:31.552Z,1176
2017-09-24T10:09:31.399Z,1156
2017-09-24T10:10:31.692Z,1124
2017-09-24T10:11:31.387Z,1136
2017-09-24T10:12:31.383Z,1172
2017-09-24T10:13:31.479Z,1164
2017-09-24T10:14:31.788Z,1144
2017-09-24T10:15:31.518Z,1192
2017-09-24T10:16:31.361Z,1216
2017-09-24T10:17:31.045Z,1200
2017-09-24T10:18:31.966Z,1172
2017-09-24T10:19:31.346Z,1160
2017-09-24T10:20:31.442Z,1132
2017-09-24T10:21:31.335Z,1080
2017-09-24T10:22:31.330Z,1044
2017-09-24T10:23:31.326Z,1020
2017-09-24T10:24:31.940Z,980
2017-09-24T10:25:32.023Z,936
2017-09-24T10:26:31.308Z,896
2017-09-24T10:27:31.309Z,856
2017-09-24T10:28:31.615Z,868
2017-09-24T10:29:31.403Z,808
2017-09-24T10:30:31.601Z,812
2017-09-24T10:31:31.295Z,888
2017-09-24T10:32:31.282Z,904
2017-09-24T10:33:31.278Z,1000
2017-09-24T10:34:31.270Z,1044
2017-09-24T10:35:31.574Z,1120
2017-09-24T10:36:31.706Z,1120
2017-09-24T10:37:31.669Z,1116
2017-09-24T10:38:31.251Z,1088
2017-09-24T10:39:30.935Z,1048
2017-09-24T10:40:31.240Z,1048
2017-09-24T10:41:31.646Z,1140
2017-09-24T10:42:30.921Z,1188
2017-09-24T10:43:31.228Z,1172
2017-09-24T10:44:31.528Z,1200
2017-09-24T10:45:31.948Z,1184
2017-09-24T10:46:30.902Z,1172
2017-09-24T10:47:31.615Z,1152
2017-09-24T10:48:31.199Z,1128
2017-09-24T10:49:31.653Z,1060
2017-09-24T10:50:30.881Z,972
2017-09-24T10:51:31.502Z,868
2017-09-24T10:52:31.689Z,816
2017-09-24T10:53:30.866Z,800
2017-09-24T10:54:31.476Z,832
2017-09-24T10:55:31.785Z,888
2017-09-24T10:56:31.163Z,984
2017-09-24T10:57:31.155Z,1068
2017-09-24T10:58:31.460Z,1080
2017-09-24T10:59:31.599Z,1036
2017-09-24T11:00:31.137Z,1008
2017-09-24T11:01:31.543Z,1036
2017-09-24T11:02:31.231Z,956
2017-09-24T11:03:31.542Z,952
2017-09-24T11:04:31.886Z,980
2017-09-24T11:05:31.422Z,1032
2017-09-24T11:06:31.115Z,1096
2017-09-24T11:07:31.417Z,1112
2017-09-24T11:08:31.104Z,1080
2017-09-24T11:09:30.785Z,1024
2017-09-24T11:10:31.086Z,1052
2017-09-24T11:11:31.184Z,972
2017-09-24T11:12:31.177Z,1020
2017-09-24T11:13:31.076Z,1068
2017-09-24T11:14:31.069Z,1060
2017-09-24T11:15:31.217Z,1016
2017-09-24T11:16:31.363Z,928
2017-09-24T11:17:31.307Z,836
2017-09-24T11:18:30.886Z,816
2017-09-24T11:19:31.043Z,840
2017-09-24T11:20:31.047Z,920
2017-09-24T11:21:30.875Z,1072
2017-09-24T11:22:30.723Z,1124
2017-09-24T11:23:31.434Z,1128
2017-09-24T11:24:31.021Z,1140
2017-09-24T11:25:31.012Z,1184
2017-09-24T11:26:30.800Z,1228
2017-09-24T11:27:31.255Z,1160
2017-09-24T11:28:31.101Z,1136
2017-09-24T11:29:30.700Z,1160
2017-09-24T11:30:30.987Z,1132
2017-09-24T11:31:30.980Z,1168
2017-09-24T11:32:31.078Z,1224
2017-09-24T11:33:31.706Z,1172
2017-09-24T11:34:31.074Z,1232
2017-09-24T11:35:30.966Z,1172
2017-09-24T11:36:31.277Z,1108
2017-09-24T11:37:31.156Z,1080
2017-09-24T11:38:30.950Z,1076
2017-09-24T11:39:31.250Z,1200
2017-09-24T11:40:31.088Z,1280
2017-09-24T11:41:30.933Z,1328
2017-09-24T11:42:31.243Z,1472
2017-09-24T11:43:31.234Z,1548
2017-09-24T11:44:30.945Z,1452
2017-09-24T11:45:31.327Z,1368
2017-09-24T11:46:31.225Z,1324
2017-09-24T11:47:31.213Z,1280
2017-09-24T11:48:30.999Z,1252
2017-09-24T11:49:30.896Z,1248
2017-09-24T11:50:31.498Z,1252
2017-09-24T11:51:31.302Z,1264
2017-09-24T11:52:30.890Z,1276
2017-09-24T11:53:30.670Z,1284
2017-09-24T11:54:31.185Z,1288
2017-09-24T11:55:30.660Z,1296
2017-09-24T11:56:31.064Z,1308
2017-09-24T11:57:31.165Z,1324
2017-09-24T11:58:30.544Z,1336
2017-09-24T11:59:31.170Z,1356
2017-09-24T12:00:31.148Z,1380
2017-09-24T12:01:31.091Z,1388
2017-09-24T12:02:30.528Z,1392
2017-09-24T12:03:31.147Z,1352
2017-09-24T12:04:31.138Z,1344
2017-09-24T12:05:30.515Z,1296
2017-09-24T12:06:31.223Z,1336
2017-09-24T12:07:31.430Z,1452
2017-09-24T12:08:30.807Z,1460
2017-09-24T12:09:31.207Z,1488
2017-09-24T12:10:30.797Z,1508
2017-09-24T12:11:30.790Z,1524
2017-09-24T12:12:30.788Z,1548
2017-09-24T12:13:31.092Z,1564
2017-09-24T12:14:30.468Z,1560
2017-09-24T12:15:30.774Z,1620
2017-09-24T12:16:30.459Z,1660
2017-09-24T12:17:30.768Z,1648
2017-09-24T12:18:31.168Z,1676
2017-09-24T12:19:30.851Z,1684
2017-09-24T12:20:30.853Z,1696
2017-09-24T12:21:31.055Z,1692
2017-09-24T12:22:31.044Z,1684
2017-09-24T12:23:31.042Z,1700
2017-09-24T12:24:30.832Z,1692
2017-09-24T12:25:30.728Z,1676
2017-09-24T12:26:31.231Z,1664
2017-09-24T12:27:30.821Z,1640
2017-09-24T12:28:31.023Z,1540
2017-09-24T12:29:31.121Z,1464
2017-09-24T12:30:30.704Z,1412
2017-09-24T12:31:31.047Z,1412
2017-09-24T12:32:30.695Z,1408
2017-09-24T12:33:30.720Z,1336
2017-09-24T12:34:30.835Z,1252
2017-09-24T12:35:30.779Z,1020
2017-09-24T12:36:31.080Z,1044
2017-09-24T12:37:30.977Z,1112
2017-09-24T12:38:30.669Z,1224
2017-09-24T12:39:30.763Z,1460
2017-09-24T12:40:31.274Z,1612
2017-09-24T12:41:30.852Z,1736
2017-09-24T12:42:30.957Z,1896
2017-09-24T12:43:30.647Z,1992
2017-09-24T12:44:31.046Z,2064
2017-09-24T12:45:31.359Z,2096
2017-09-24T12:46:30.882Z,2080
2017-09-24T12:47:30.625Z,1984
2017-09-24T12:48:30.617Z,1888
2017-09-24T12:49:31.024Z,1884
2017-09-24T12:50:30.711Z,1900
2017-09-24T12:51:30.805Z,1960
2017-09-24T12:52:30.607Z,2036
2017-09-24T12:53:30.289Z,2116
2017-09-24T12:54:30.902Z,2140
2017-09-24T12:55:30.586Z,2104
2017-09-24T12:56:31.146Z,2120
2017-09-24T12:57:31.198Z,2100
2017-09-24T12:58:31.196Z,2132
2017-09-24T12:59:30.568Z,2136
2017-09-24T13:00:30.874Z,2140
2017-09-24T13:01:31.374Z,2128
2017-09-24T13:02:30.961Z,2044
2017-09-24T13:03:30.862Z,1996
2017-09-24T13:04:30.861Z,1936
2017-09-24T13:05:30.645Z,1800
2017-09-24T13:06:30.846Z,1716
2017-09-24T13:07:30.842Z,1696
2017-09-24T13:08:30.528Z,1680
2017-09-24T13:09:30.626Z,1652
2017-09-24T13:10:30.520Z,1656
2017-09-24T13:11:31.288Z,1644
2017-09-24T13:12:30.517Z,1776
2017-09-24T13:13:31.125Z,1696
2017-09-24T13:14:30.503Z,1728
2017-09-24T13:15:30.498Z,1760
2017-09-24T13:16:30.187Z,1772
2017-09-24T13:17:30.809Z,1716
2017-09-24T13:18:30.171Z,1652
2017-09-24T13:19:30.886Z,1584
2017-09-24T13:20:30.580Z,1432
2017-09-24T13:21:30.780Z,1404
2017-09-24T13:22:30.467Z,1384
2017-09-24T13:23:30.254Z,1352
2017-09-24T13:24:31.277Z,1316
2017-09-24T13:25:30.653Z,1288
2017-09-24T13:26:30.756Z,1272
2017-09-24T13:27:30.598Z,1256
2017-09-24T13:28:30.439Z,1248
2017-09-24T13:29:30.439Z,1236
2017-09-24T13:30:30.379Z,1232
2017-09-24T13:31:30.425Z,1284
2017-09-24T13:32:30.417Z,1372
2017-09-24T13:33:30.827Z,1524
2017-09-24T13:34:30.726Z,1560
2017-09-24T13:35:30.720Z,1496
2017-09-24T13:36:30.708Z,1488
2017-09-24T13:37:30.710Z,1524
2017-09-24T13:38:30.399Z,1584
2017-09-24T13:39:30.084Z,1636
2017-09-24T13:40:30.792Z,1664
2017-09-24T13:41:31.003Z,1656
2017-09-24T13:42:30.477Z,1612
2017-09-24T13:43:30.374Z,1524
2017-09-24T13:44:30.678Z,1456
2017-09-24T13:45:30.254Z,1380
2017-09-24T13:46:30.359Z,1232
2017-09-24T13:47:30.664Z,1104
2017-09-24T13:48:30.354Z,1024
2017-09-24T13:49:30.658Z,1008
2017-09-24T13:50:30.340Z,1056
2017-09-24T13:51:30.799Z,1108
2017-09-24T13:52:30.676Z,1092
2017-09-24T13:53:30.362Z,1020
2017-09-24T13:54:30.634Z,940
2017-09-24T13:55:30.416Z,908
2017-09-24T13:56:30.310Z,908
2017-09-24T13:57:30.618Z,904
2017-09-24T13:58:30.308Z,896
2017-09-24T13:59:30.717Z,884
2017-09-24T14:00:30.089Z,864